Time;durP1;ratioP1;P1;durP2;ratioP2;P2;SDS_P1;SDS_P2;PMS_P1;PMS_P2;Temp;Humidity;BMP_temperature;BMP_pressure;BME280_temperature;BME280_humidity;BME280_pressure;Samples;Min_cycle;Max_cycle;Signal;HPM_P1;HPM_P2
2023/08/22 00:01:57;;;;;;;;;;;20.40;56.70;;;;;;5054174;28;19909;-68
2023/08/22 00:04:24;;;;;;;;;;;19.80;60.40;;;;;;5053791;28;20358;-68
2023/08/22 00:06:51;;;;;;;;;;;19.90;59.90;;;;;;5039532;28;20005;-68
2023/08/22 00:09:17;;;;;;;;;;;20.10;60.00;;;;;;5032603;28;19913;-69
2023/08/22 00:11:44;;;;;;;;;;;20.60;59.20;;;;;;5033673;28;19912;-68
2023/08/22 00:14:11;;;;;;;;;;;21.50;56.00;;;;;;5033975;28;19905;-68
2023/08/22 00:16:37;;;;;;;;;;;21.80;55.40;;;;;;5045827;28;19970;-68
2023/08/22 00:19:05;;;;;;;;;;;22.30;54.50;;;;;;5053492;28;19919;-68
2023/08/22 00:21:31;;;;;;;;;;;22.30;53.90;;;;;;5053711;28;19923;-68
2023/08/22 00:23:59;;;;;;;;;;;22.70;53.90;;;;;;5038515;28;19909;-68
2023/08/22 00:26:25;;;;;;;;;;;22.80;52.80;;;;;;5033031;28;19917;-68
2023/08/22 00:28:52;;;;;;;;;;;22.80;52.40;;;;;;5033787;28;20282;-68
2023/08/22 00:31:18;;;;;;;;;;;23.20;52.00;;;;;;5044257;28;19909;-68
2023/08/22 00:33:45;;;;;;;;;;;23.20;51.80;;;;;;5046520;28;19909;-68
2023/08/22 00:36:12;;;;;;;;;;;23.60;50.80;;;;;;5051809;28;19952;-68
2023/08/22 00:38:38;;;;;;;;;;;23.60;51.20;;;;;;5053118;28;19913;-69
2023/08/22 00:41:05;;;;;;;;;;;24.10;50.00;;;;;;5037550;28;19917;-68
2023/08/22 00:43:32;;;;;;;;;;;23.90;49.50;;;;;;5033491;28;20416;-68
2023/08/22 00:45:58;;;;;;;;;;;24.40;48.90;;;;;;5033387;28;19905;-69
2023/08/22 00:48:25;;;;;;;;;;;25.00;46.90;;;;;;5033258;28;19913;-68
2023/08/22 00:50:52;;;;;;;;;;;24.90;47.60;;;;;;5046168;28;19904;-69
2023/08/22 00:53:18;;;;;;;;;;;25.10;46.70;;;;;;5052756;28;20269;-69
2023/08/22 00:55:45;;;;;;;;;;;24.80;46.40;;;;;;5053193;28;19947;-69
2023/08/22 00:58:14;;;;;;;;;;;25.80;44.50;;;;;;5035834;28;19913;-70
2023/08/22 01:00:40;;;;;;;;;;;26.10;43.70;;;;;;5033140;28;19912;-69
2023/08/22 01:03:07;;;;;;;;;;;26.00;43.60;;;;;;5032995;28;19912;-69
2023/08/22 01:05:37;;;;;;;;;;;25.50;44.00;;;;;;5033109;28;19975;-69
2023/08/22 01:08:13;;;;;;;;;;;24.80;44.80;;;;;;5031904;28;19996;-69
2023/08/22 01:10:44;;;;;;;;;;;24.90;46.20;;;;;;5033309;28;19909;-69
2023/08/22 01:13:15;;;;;;;;;;;24.90;46.10;;;;;;5031771;28;20309;-69
2023/08/22 01:15:42;;;;;;;;;;;25.50;45.10;;;;;;5032899;28;19905;-69
2023/08/22 01:18:11;;;;;;;;;;;25.60;44.60;;;;;;5031442;28;19995;-68
2023/08/22 01:20:38;;;;;;;;;;;25.50;45.30;;;;;;5031253;28;19924;-68
2023/08/22 01:23:04;;;;;;;;;;;26.00;44.30;;;;;;5031411;28;19905;-68
2023/08/22 01:25:31;;;;;;;;;;;26.20;43.50;;;;;;5040092;28;19909;-69
2023/08/22 01:28:16;;;;;;;;;;;26.00;43.30;;;;;;5032473;28;19917;-69
2023/08/22 01:30:57;;;;;;;;;;;25.90;44.20;;;;;;5037019;28;20368;-69
2023/08/22 01:33:42;;;;;;;;;;;26.30;43.80;;;;;;5052476;28;20010;-69
2023/08/22 01:36:10;;;;;;;;;;;26.50;43.00;;;;;;5052607;28;20358;-70
2023/08/22 01:38:38;;;;;;;;;;;26.70;43.00;;;;;;5052417;28;19974;-71
2023/08/22 01:41:05;;;;;;;;;;;26.70;42.60;;;;;;5051716;28;19912;-70
2023/08/22 01:43:36;;;;;;;;;;;26.80;43.00;;;;;;5052214;28;19904;-70
2023/08/22 01:46:05;;;;;;;;;;;26.60;43.30;;;;;;5054035;28;19908;-70
2023/08/22 01:48:31;;;;;;;;;;;27.10;42.80;;;;;;5043706;28;20270;-70
2023/08/22 01:50:58;;;;;;;;;;;27.40;42.20;;;;;;5036678;28;19905;-71
2023/08/22 01:53:25;;;;;;;;;;;27.30;43.60;;;;;;5036462;28;19909;-69
2023/08/22 01:55:52;;;;;;;;;;;27.70;42.90;;;;;;5036368;28;20008;-69
2023/08/22 01:58:19;;;;;;;;;;;28.00;42.20;;;;;;5036919;28;19913;-69
2023/08/22 02:00:45;;;;;;;;;;;28.20;42.60;;;;;;5037495;28;19982;-69
2023/08/22 02:03:12;;;;;;;;;;;27.40;42.90;;;;;;5036304;28;19959;-69
2023/08/22 02:05:39;;;;;;;;;;;27.20;42.80;;;;;;5040428;28;19913;-69
2023/08/22 02:08:05;;;;;;;;;;;27.20;42.20;;;;;;5036210;28;19913;-69
2023/08/22 02:10:32;;;;;;;;;;;26.70;44.10;;;;;;5036029;28;19905;-69
2023/08/22 02:12:59;;;;;;;;;;;27.00;44.20;;;;;;5036098;28;20362;-70
2023/08/22 02:15:25;;;;;;;;;;;27.90;42.50;;;;;;5046664;28;20225;-70
2023/08/22 02:17:52;;;;;;;;;;;27.80;42.40;;;;;;5056053;28;19916;-70
2023/08/22 02:20:22;;;;;;;;;;;27.90;41.60;;;;;;5056015;28;19909;-70
2023/08/22 02:22:49;;;;;;;;;;;27.80;41.90;;;;;;5054927;28;20251;-69
2023/08/22 02:25:16;;;;;;;;;;;28.40;41.50;;;;;;5037308;28;19909;-70
2023/08/22 02:27:42;;;;;;;;;;;28.50;41.20;;;;;;5036040;28;19951;-69
2023/08/22 02:30:10;;;;;;;;;;;28.10;41.30;;;;;;5035941;28;19905;-69
2023/08/22 02:32:37;;;;;;;;;;;28.10;41.70;;;;;;5036444;28;19990;-69
2023/08/22 02:35:03;;;;;;;;;;;28.30;40.50;;;;;;5035851;28;19912;-70
2023/08/22 02:37:30;;;;;;;;;;;28.30;39.30;;;;;;5035493;28;19920;-70
2023/08/22 02:39:57;;;;;;;;;;;27.60;40.90;;;;;;5035594;28;19927;-70
2023/08/22 02:42:23;;;;;;;;;;;27.40;40.60;;;;;;5034519;28;19991;-69
2023/08/22 02:44:50;;;;;;;;;;;27.10;40.40;;;;;;5035668;28;19931;-69
2023/08/22 02:47:16;;;;;;;;;;;26.90;41.50;;;;;;5035695;28;19905;-70
2023/08/22 02:49:43;;;;;;;;;;;26.70;42.50;;;;;;5036009;28;19905;-69
2023/08/22 02:52:10;;;;;;;;;;;26.60;42.10;;;;;;5035359;28;19905;-70
2023/08/22 02:54:36;;;;;;;;;;;26.60;40.10;;;;;;5035840;28;19955;-70
2023/08/22 02:57:03;;;;;;;;;;;26.70;40.60;;;;;;5050468;28;20354;-70
2023/08/22 02:59:30;;;;;;;;;;;26.90;39.70;;;;;;5055011;28;19920;-70
2023/08/22 03:01:56;;;;;;;;;;;26.80;37.50;;;;;;5055404;28;19915;-70
2023/08/22 03:04:23;;;;;;;;;;;27.20;37.70;;;;;;5055169;28;19912;-70
2023/08/22 03:06:50;;;;;;;;;;;27.20;36.50;;;;;;5040259;28;19911;-70
2023/08/22 03:09:17;;;;;;;;;;;27.50;37.90;;;;;;5035574;28;19988;-70
2023/08/22 03:11:43;;;;;;;;;;;27.60;37.00;;;;;;5035144;28;19904;-69
2023/08/22 03:14:10;;;;;;;;;;;27.80;37.60;;;;;;5035401;28;20370;-69
2023/08/22 03:16:37;;;;;;;;;;;28.20;37.30;;;;;;5033814;28;19984;-69
2023/08/22 03:19:03;;;;;;;;;;;28.60;35.90;;;;;;5034751;28;20382;-71
2023/08/22 03:21:30;;;;;;;;;;;28.30;33.90;;;;;;5033267;28;20301;-70
2023/08/22 03:23:57;;;;;;;;;;;28.20;34.10;;;;;;5042652;28;19905;-70
2023/08/22 03:26:23;;;;;;;;;;;27.60;35.50;;;;;;5054691;28;19924;-70
2023/08/22 03:28:50;;;;;;;;;;;27.30;35.80;;;;;;5054636;28;20440;-70
2023/08/22 03:31:17;;;;;;;;;;;27.50;36.10;;;;;;5036836;28;19905;-71
2023/08/22 03:33:43;;;;;;;;;;;27.90;35.00;;;;;;5034601;28;19909;-70
2023/08/22 03:36:10;;;;;;;;;;;27.80;34.00;;;;;;5034926;28;20055;-70
2023/08/22 03:38:37;;;;;;;;;;;27.50;34.50;;;;;;5034702;28;20021;-70
2023/08/22 03:41:03;;;;;;;;;;;27.40;35.50;;;;;;5035197;28;19905;-70
2023/08/22 03:43:30;;;;;;;;;;;27.20;36.00;;;;;;5034487;28;20034;-70
2023/08/22 03:45:57;;;;;;;;;;;27.20;34.60;;;;;;5034562;28;19911;-70
2023/08/22 03:48:23;;;;;;;;;;;27.00;35.70;;;;;;5052429;28;20372;-70
2023/08/22 03:50:50;;;;;;;;;;;26.70;34.30;;;;;;5054490;28;19908;-70
2023/08/22 03:53:17;;;;;;;;;;;26.90;34.50;;;;;;5054475;28;19904;-71
2023/08/22 03:55:44;;;;;;;;;;;26.90;32.10;;;;;;5054278;28;19904;-70
2023/08/22 03:58:11;;;;;;;;;;;26.70;32.40;;;;;;5053184;28;19915;-70
2023/08/22 04:00:38;;;;;;;;;;;26.40;33.70;;;;;;5054080;28;20311;-70
2023/08/22 04:03:04;;;;;;;;;;;26.40;33.40;;;;;;5053789;28;19911;-70
2023/08/22 04:05:31;;;;;;;;;;;26.30;33.80;;;;;;5034713;28;19905;-71
2023/08/22 04:07:58;;;;;;;;;;;25.90;34.70;;;;;;5033988;28;20389;-70
2023/08/22 04:10:24;;;;;;;;;;;25.70;35.50;;;;;;5032906;28;19999;-70
2023/08/22 04:12:51;;;;;;;;;;;25.70;35.70;;;;;;5034140;28;19913;-71
2023/08/22 04:15:19;;;;;;;;;;;25.80;35.70;;;;;;5032848;28;19905;-71
2023/08/22 04:17:45;;;;;;;;;;;25.70;36.50;;;;;;5033610;28;19921;-71
2023/08/22 04:20:12;;;;;;;;;;;25.70;36.60;;;;;;5034244;28;19905;-71
2023/08/22 04:22:41;;;;;;;;;;;25.80;36.50;;;;;;5053691;28;20431;-71
2023/08/22 04:25:08;;;;;;;;;;;25.90;36.10;;;;;;5053748;28;19904;-71
2023/08/22 04:27:35;;;;;;;;;;;26.00;35.80;;;;;;5053684;28;20278;-71
2023/08/22 04:30:02;;;;;;;;;;;25.90;36.10;;;;;;5053567;28;20350;-70
2023/08/22 04:32:28;;;;;;;;;;;26.20;35.70;;;;;;5034685;28;19915;-70
2023/08/22 04:34:55;;;;;;;;;;;26.30;37.10;;;;;;5033807;28;19909;-70
2023/08/22 04:37:22;;;;;;;;;;;26.20;38.40;;;;;;5033930;28;19909;-71
2023/08/22 04:39:49;;;;;;;;;;;26.00;39.50;;;;;;5053467;28;19905;-70
2023/08/22 04:42:15;;;;;;;;;;;25.80;40.70;;;;;;5053283;28;19915;-72
2023/08/22 04:44:42;;;;;;;;;;;25.70;39.90;;;;;;5053062;28;20047;-70
2023/08/22 04:47:09;;;;;;;;;;;25.70;40.30;;;;;;5052755;28;19959;-71
2023/08/22 04:49:35;;;;;;;;;;;25.80;40.50;;;;;;5033363;28;20004;-70
2023/08/22 04:52:02;;;;;;;;;;;25.80;40.50;;;;;;5032486;28;19905;-70
2023/08/22 04:54:29;;;;;;;;;;;25.70;39.50;;;;;;5033635;28;20281;-70
2023/08/22 04:56:55;;;;;;;;;;;25.60;40.60;;;;;;5033703;28;20350;-71
2023/08/22 04:59:22;;;;;;;;;;;25.60;41.40;;;;;;5032798;28;20378;-70
2023/08/22 05:01:49;;;;;;;;;;;25.60;41.00;;;;;;5033357;28;19905;-70
2023/08/22 05:04:16;;;;;;;;;;;25.60;40.80;;;;;;5045290;28;19913;-72
2023/08/22 05:06:43;;;;;;;;;;;25.40;41.10;;;;;;5046101;28;20492;-70
2023/08/22 05:09:10;;;;;;;;;;;25.30;41.20;;;;;;5050068;28;20380;-71
2023/08/22 05:11:36;;;;;;;;;;;25.30;41.40;;;;;;5048754;28;20358;-70
2023/08/22 05:14:03;;;;;;;;;;;25.30;41.70;;;;;;5032689;28;19945;-70
2023/08/22 05:16:30;;;;;;;;;;;25.30;42.20;;;;;;5043646;28;19905;-71
2023/08/22 05:18:56;;;;;;;;;;;25.20;42.40;;;;;;5052614;28;19912;-70
2023/08/22 05:21:24;;;;;;;;;;;25.10;42.60;;;;;;5051325;28;19965;-70
2023/08/22 05:23:50;;;;;;;;;;;25.10;42.70;;;;;;5052586;28;20003;-70
2023/08/22 05:26:17;;;;;;;;;;;25.10;42.40;;;;;;5052120;28;19905;-71
2023/08/22 05:28:44;;;;;;;;;;;25.00;43.00;;;;;;5048190;28;19959;-70
2023/08/22 05:31:18;;;;;;;;;;;25.10;42.60;;;;;;5031408;28;19909;-70
2023/08/22 05:33:45;;;;;;;;;;;25.00;42.70;;;;;;5032849;28;19909;-70
2023/08/22 05:36:11;;;;;;;;;;;24.90;43.00;;;;;;5031265;28;20361;-71
2023/08/22 05:38:38;;;;;;;;;;;24.90;42.80;;;;;;5031573;28;20325;-69
2023/08/22 05:41:05;;;;;;;;;;;24.90;42.20;;;;;;5031065;28;20354;-70
2023/08/22 05:43:31;;;;;;;;;;;24.90;41.50;;;;;;5032460;28;19940;-70
2023/08/22 05:45:58;;;;;;;;;;;24.90;41.60;;;;;;5038950;28;20366;-70
2023/08/22 05:48:25;;;;;;;;;;;24.90;41.50;;;;;;5052397;28;20384;-70
2023/08/22 05:50:52;;;;;;;;;;;24.90;41.40;;;;;;5052429;28;19909;-70
2023/08/22 05:53:19;;;;;;;;;;;25.00;41.50;;;;;;5052141;28;19911;-70
2023/08/22 05:55:45;;;;;;;;;;;25.30;40.50;;;;;;5047317;28;19972;-70
2023/08/22 05:58:12;;;;;;;;;;;25.60;39.40;;;;;;5032519;28;19917;-70
2023/08/22 06:00:39;;;;;;;;;;;26.00;39.60;;;;;;5032320;28;20381;-70
2023/08/22 06:03:06;;;;;;;;;;;26.20;39.00;;;;;;5032266;28;20074;-70
2023/08/22 06:05:32;;;;;;;;;;;26.20;38.50;;;;;;5034827;28;20270;-70
2023/08/22 06:07:59;;;;;;;;;;;26.30;38.70;;;;;;5051767;28;19905;-70
2023/08/22 06:10:26;;;;;;;;;;;26.30;38.10;;;;;;5052135;28;20278;-70
2023/08/22 06:12:52;;;;;;;;;;;26.50;37.50;;;;;;5045857;28;20003;-70
2023/08/22 06:15:19;;;;;;;;;;;26.50;38.20;;;;;;5032285;28;19905;-69
2023/08/22 06:17:46;;;;;;;;;;;26.30;38.10;;;;;;5032070;28;19936;-69
2023/08/22 06:20:13;;;;;;;;;;;26.20;38.50;;;;;;5040705;28;19923;-70
2023/08/22 06:22:39;;;;;;;;;;;26.30;38.60;;;;;;5051939;28;19944;-70
2023/08/22 06:25:06;;;;;;;;;;;26.40;37.80;;;;;;5051987;28;19921;-70
2023/08/22 06:27:33;;;;;;;;;;;26.30;38.10;;;;;;5050512;28;20095;-69
2023/08/22 06:30:01;;;;;;;;;;;26.20;37.90;;;;;;5044472;28;19905;-70
2023/08/22 06:32:27;;;;;;;;;;;26.20;38.40;;;;;;5032203;28;19995;-71
2023/08/22 06:34:59;;;;;;;;;;;26.00;38.80;;;;;;5035789;28;19909;-71
2023/08/22 06:37:26;;;;;;;;;;;25.80;38.20;;;;;;5044565;28;19916;-70
2023/08/22 06:39:52;;;;;;;;;;;25.50;39.10;;;;;;5055663;28;19908;-70
2023/08/22 06:42:19;;;;;;;;;;;25.30;39.30;;;;;;5055679;28;19909;-69
2023/08/22 06:44:46;;;;;;;;;;;25.30;39.10;;;;;;5054440;28;19969;-69
2023/08/22 06:47:12;;;;;;;;;;;25.10;39.60;;;;;;5054584;28;19904;-70
2023/08/22 06:49:39;;;;;;;;;;;25.10;40.10;;;;;;5053936;28;19912;-70
2023/08/22 06:52:06;;;;;;;;;;;25.10;39.50;;;;;;5054194;28;20422;-70
2023/08/22 06:54:33;;;;;;;;;;;24.90;40.20;;;;;;5043688;28;19914;-71
2023/08/22 06:57:00;;;;;;;;;;;25.00;39.70;;;;;;5035532;28;20358;-69
2023/08/22 06:59:27;;;;;;;;;;;25.00;40.00;;;;;;5035548;28;19956;-70
2023/08/22 07:01:53;;;;;;;;;;;24.90;40.20;;;;;;5035308;28;19905;-70
2023/08/22 07:04:20;;;;;;;;;;;24.70;40.30;;;;;;5044518;28;20373;-70
2023/08/22 07:06:47;;;;;;;;;;;24.40;40.30;;;;;;5055281;28;19948;-70
2023/08/22 07:09:13;;;;;;;;;;;24.30;40.80;;;;;;5053975;28;20404;-70
2023/08/22 07:11:40;;;;;;;;;;;24.20;41.10;;;;;;5041008;28;19905;-70
2023/08/22 07:14:07;;;;;;;;;;;24.00;41.50;;;;;;5035194;28;19914;-70
2023/08/22 07:16:34;;;;;;;;;;;23.80;41.40;;;;;;5034952;28;19927;-70
2023/08/22 07:19:00;;;;;;;;;;;23.70;41.80;;;;;;5035383;28;19913;-70
2023/08/22 07:21:27;;;;;;;;;;;23.50;42.40;;;;;;5035947;28;19909;-70
2023/08/22 07:23:54;;;;;;;;;;;23.30;42.50;;;;;;5034792;28;19905;-70
2023/08/22 07:26:20;;;;;;;;;;;23.30;42.80;;;;;;5034655;28;19932;-71
2023/08/22 07:28:47;;;;;;;;;;;23.30;42.20;;;;;;5048298;28;20003;-71
2023/08/22 07:31:13;;;;;;;;;;;23.20;43.10;;;;;;5054479;28;19905;-70
2023/08/22 07:33:40;;;;;;;;;;;23.10;42.70;;;;;;5054692;28;20004;-69
2023/08/22 07:36:16;;;;;;;;;;;22.80;43.50;;;;;;5054981;28;19909;-70
2023/08/22 07:38:42;;;;;;;;;;;22.60;43.70;;;;;;5052378;28;19916;-70
2023/08/22 07:41:10;;;;;;;;;;;22.50;44.00;;;;;;5054499;28;19905;-70
2023/08/22 07:43:36;;;;;;;;;;;22.30;44.50;;;;;;5053938;28;20349;-70
2023/08/22 07:46:03;;;;;;;;;;;22.20;44.90;;;;;;5037964;28;20309;-69
2023/08/22 07:48:30;;;;;;;;;;;22.00;45.20;;;;;;5034501;28;19905;-69
2023/08/22 07:50:56;;;;;;;;;;;21.80;45.60;;;;;;5034694;28;19905;-69
2023/08/22 07:53:23;;;;;;;;;;;21.60;46.10;;;;;;5032973;28;20318;-69
2023/08/22 07:55:50;;;;;;;;;;;21.60;46.30;;;;;;5034765;28;19912;-69
2023/08/22 07:58:16;;;;;;;;;;;21.60;46.50;;;;;;5034043;28;19909;-69
2023/08/22 08:00:49;;;;;;;;;;;21.50;46.60;;;;;;5033987;28;19917;-69
2023/08/22 08:03:16;;;;;;;;;;;21.50;47.00;;;;;;5044469;28;19909;-70
2023/08/22 08:05:43;;;;;;;;;;;21.50;47.00;;;;;;5051021;28;19912;-69
2023/08/22 08:08:09;;;;;;;;;;;21.40;47.40;;;;;;5054020;28;19918;-69
2023/08/22 08:10:36;;;;;;;;;;;21.30;47.30;;;;;;5052300;28;19951;-70
2023/08/22 08:13:03;;;;;;;;;;;21.30;47.30;;;;;;5037434;28;19909;-70
2023/08/22 08:15:30;;;;;;;;;;;21.30;47.30;;;;;;5034104;28;19909;-70
2023/08/22 08:17:59;;;;;;;;;;;21.30;47.20;;;;;;5032536;28;19909;-70
2023/08/22 08:20:25;;;;;;;;;;;21.30;48.10;;;;;;5052243;28;19913;-70
2023/08/22 08:22:52;;;;;;;;;;;21.30;49.00;;;;;;5053749;28;19908;-70
2023/08/22 08:25:19;;;;;;;;;;;21.20;49.80;;;;;;5053641;28;19904;-70
2023/08/22 08:27:45;;;;;;;;;;;21.10;49.70;;;;;;5052274;28;19931;-69
2023/08/22 08:30:12;;;;;;;;;;;21.10;50.30;;;;;;5052912;28;20317;-70
2023/08/22 08:32:39;;;;;;;;;;;21.00;50.50;;;;;;5053631;28;19905;-70
2023/08/22 08:35:07;;;;;;;;;;;21.10;51.30;;;;;;5051874;28;20281;-70
2023/08/22 08:37:33;;;;;;;;;;;21.00;51.80;;;;;;5051539;28;19904;-71
2023/08/22 08:40:00;;;;;;;;;;;21.10;52.00;;;;;;5053384;28;20346;-70
2023/08/22 08:42:27;;;;;;;;;;;21.00;52.50;;;;;;5053528;28;20384;-70
2023/08/22 08:44:56;;;;;;;;;;;21.00;52.80;;;;;;5053466;28;20277;-70
2023/08/22 12:42:45;;;;;;;;;;;15.90;91.10;;;;;;2627297;28;3876262;-71
2023/08/22 12:45:12;;;;;;;;;;;15.90;90.70;;;;;;5034330;28;20442;-72
2023/08/22 12:47:39;;;;;;;;;;;15.90;90.80;;;;;;5034692;28;20286;-72
2023/08/22 12:50:06;;;;;;;;;;;15.90;90.70;;;;;;5034568;28;19919;-71
2023/08/22 12:55:40;;;;;;;;;;;15.70;90.80;;;;;;5034948;28;19943;-72
2023/08/22 12:58:07;;;;;;;;;;;15.50;91.10;;;;;;5035165;28;19921;-71
2023/08/22 13:00:34;;;;;;;;;;;15.40;91.60;;;;;;5034940;28;19917;-71
2023/08/22 13:03:08;;;;;;;;;;;15.20;92.30;;;;;;5033880;28;20385;-71
2023/08/22 13:05:35;;;;;;;;;;;15.10;92.50;;;;;;5034671;28;19921;-72
2023/08/22 13:08:02;;;;;;;;;;;15.10;92.80;;;;;;5034676;28;19909;-72
2023/08/22 13:10:28;;;;;;;;;;;15.00;92.80;;;;;;5034919;28;20370;-72
2023/08/22 13:12:55;;;;;;;;;;;14.80;93.40;;;;;;5033509;28;19909;-72
2023/08/22 13:15:22;;;;;;;;;;;14.80;93.50;;;;;;5045021;28;19916;-72
2023/08/22 13:17:49;;;;;;;;;;;14.70;94.00;;;;;;5034555;28;19952;-71
2023/08/22 13:20:17;;;;;;;;;;;14.70;94.20;;;;;;5034723;28;19924;-71
2023/08/22 13:22:43;;;;;;;;;;;14.60;94.30;;;;;;5034934;28;19916;-71
2023/08/22 13:25:10;;;;;;;;;;;14.50;94.50;;;;;;5034131;28;20350;-72
2023/08/22 13:27:39;;;;;;;;;;;14.50;94.80;;;;;;5034491;28;20366;-71
2023/08/22 13:30:06;;;;;;;;;;;14.70;94.40;;;;;;5034399;28;19913;-72
2023/08/22 13:32:33;;;;;;;;;;;14.60;94.60;;;;;;5034947;28;19959;-71
2023/08/22 13:35:00;;;;;;;;;;;14.60;94.70;;;;;;5034228;28;20194;-72
2023/08/22 13:37:31;;;;;;;;;;;14.50;95.00;;;;;;5034471;28;19913;-72
2023/08/22 13:39:57;;;;;;;;;;;14.50;95.30;;;;;;5034305;28;19929;-71
2023/08/22 13:42:24;;;;;;;;;;;14.60;95.10;;;;;;5033007;28;19909;-71
2023/08/22 13:44:50;;;;;;;;;;;14.50;95.30;;;;;;5033537;28;20272;-71
2023/08/22 13:47:17;;;;;;;;;;;14.60;95.20;;;;;;5034305;28;19936;-71
2023/08/22 13:49:44;;;;;;;;;;;14.60;95.30;;;;;;5034135;28;19927;-71
2023/08/22 13:52:10;;;;;;;;;;;14.60;95.30;;;;;;5034001;28;19909;-71
2023/08/22 13:54:37;;;;;;;;;;;14.60;95.10;;;;;;5033480;28;19917;-71
2023/08/22 13:57:04;;;;;;;;;;;14.60;95.20;;;;;;5032397;28;19958;-71
2023/08/22 13:59:30;;;;;;;;;;;14.50;95.40;;;;;;5033764;28;20466;-71
2023/08/22 14:01:57;;;;;;;;;;;14.50;95.50;;;;;;5034098;28;19916;-71
2023/08/22 14:04:24;;;;;;;;;;;14.50;95.50;;;;;;5033690;28;19928;-71
2023/08/22 14:06:52;;;;;;;;;;;14.40;95.60;;;;;;5033747;28;19916;-70
2023/08/22 14:09:19;;;;;;;;;;;14.50;95.70;;;;;;5033039;28;19909;-71
2023/08/22 14:11:46;;;;;;;;;;;14.50;95.30;;;;;;5033122;28;19928;-71
2023/08/22 14:14:12;;;;;;;;;;;14.50;95.40;;;;;;5033239;28;19931;-71
2023/08/22 14:16:39;;;;;;;;;;;14.50;95.20;;;;;;5032979;28;20367;-71
2023/08/22 14:19:06;;;;;;;;;;;14.40;95.50;;;;;;5033653;28;19928;-71
2023/08/22 14:21:32;;;;;;;;;;;14.40;95.30;;;;;;5033460;28;19916;-71
2023/08/22 14:23:59;;;;;;;;;;;14.30;95.50;;;;;;5031781;28;19959;-71
2023/08/22 14:26:25;;;;;;;;;;;14.20;95.60;;;;;;5033345;28;19919;-71
2023/08/22 14:28:52;;;;;;;;;;;14.20;95.90;;;;;;5033319;28;19945;-70
2023/08/22 14:31:19;;;;;;;;;;;14.20;95.80;;;;;;5033441;28;20323;-71
2023/08/22 14:33:46;;;;;;;;;;;14.20;95.60;;;;;;5033029;28;20015;-71
2023/08/22 14:36:12;;;;;;;;;;;14.20;95.50;;;;;;5033269;28;19909;-71
2023/08/22 14:38:39;;;;;;;;;;;14.10;95.80;;;;;;5031593;28;19917;-71
2023/08/22 14:41:06;;;;;;;;;;;14.20;95.60;;;;;;5033351;28;19913;-71
2023/08/22 14:43:33;;;;;;;;;;;14.20;95.60;;;;;;5032642;28;19936;-71
2023/08/22 14:46:01;;;;;;;;;;;14.30;95.40;;;;;;5033142;28;19983;-71
2023/08/22 14:48:28;;;;;;;;;;;14.20;95.60;;;;;;5031714;28;19970;-71
2023/08/22 14:50:54;;;;;;;;;;;14.10;95.80;;;;;;5033198;28;20423;-71
2023/08/22 14:53:21;;;;;;;;;;;14.10;95.60;;;;;;5032381;28;19914;-71
2023/08/22 14:55:57;;;;;;;;;;;14.10;95.50;;;;;;5033103;28;19910;-71
2023/08/22 14:58:25;;;;;;;;;;;14.00;95.70;;;;;;5032956;28;20286;-71
2023/08/22 15:00:54;;;;;;;;;;;14.00;95.50;;;;;;5032828;28;19940;-71
2023/08/22 15:03:21;;;;;;;;;;;14.00;95.60;;;;;;5032735;28;20008;-71
2023/08/22 15:05:50;;;;;;;;;;;14.00;95.40;;;;;;5032518;28;20047;-71
2023/08/22 15:08:17;;;;;;;;;;;13.90;95.80;;;;;;5032413;28;19913;-71
2023/08/22 15:10:48;;;;;;;;;;;13.80;95.80;;;;;;5033004;28;19917;-71
2023/08/22 15:13:15;;;;;;;;;;;13.80;96.00;;;;;;5047767;28;19913;-71
2023/08/22 15:15:42;;;;;;;;;;;13.80;95.60;;;;;;5032564;28;19925;-71
2023/08/22 15:18:08;;;;;;;;;;;13.60;95.60;;;;;;5032178;28;19917;-71
2023/08/22 15:20:35;;;;;;;;;;;13.60;95.70;;;;;;5032568;28;19909;-71
2023/08/22 15:23:02;;;;;;;;;;;13.60;95.70;;;;;;5032919;28;20011;-71
2023/08/22 15:25:28;;;;;;;;;;;13.50;95.90;;;;;;5031793;28;19967;-71
2023/08/22 15:27:58;;;;;;;;;;;13.50;95.90;;;;;;5032709;28;19942;-71
2023/08/22 15:30:25;;;;;;;;;;;13.40;95.90;;;;;;5031250;28;19917;-71
2023/08/22 15:32:52;;;;;;;;;;;13.40;95.80;;;;;;5032467;28;19915;-71
2023/08/22 15:35:18;;;;;;;;;;;13.40;95.80;;;;;;5032179;28;19909;-70
2023/08/22 15:37:45;;;;;;;;;;;13.40;95.60;;;;;;5033004;28;19909;-71
2023/08/22 15:40:12;;;;;;;;;;;13.30;95.70;;;;;;5032380;28;19923;-71
2023/08/22 15:42:39;;;;;;;;;;;13.30;95.60;;;;;;5032401;28;19913;-71
2023/08/22 15:45:06;;;;;;;;;;;13.30;95.60;;;;;;5032251;28;19913;-72
2023/08/22 15:47:33;;;;;;;;;;;13.20;95.80;;;;;;5032277;28;19917;-71
2023/08/22 15:49:59;;;;;;;;;;;13.20;95.90;;;;;;5032709;28;19913;-72
2023/08/22 15:52:27;;;;;;;;;;;13.20;96.10;;;;;;5032243;28;19913;-71
2023/08/22 15:54:54;;;;;;;;;;;13.20;96.10;;;;;;5032179;28;19914;-71
2023/08/22 15:57:20;;;;;;;;;;;13.10;96.10;;;;;;5032174;28;20013;-71
2023/08/22 15:59:47;;;;;;;;;;;13.10;96.30;;;;;;5032410;28;20366;-71
2023/08/22 16:02:14;;;;;;;;;;;13.00;96.50;;;;;;5048002;28;19913;-71
2023/08/22 16:04:40;;;;;;;;;;;13.00;96.50;;;;;;5032360;28;19913;-72
2023/08/22 16:07:07;;;;;;;;;;;12.90;96.50;;;;;;5036271;28;19909;-71
2023/08/22 16:09:34;;;;;;;;;;;12.90;96.50;;;;;;5035996;28;20269;-71
2023/08/22 16:12:00;;;;;;;;;;;12.90;96.60;;;;;;5045125;28;19909;-71
2023/08/22 16:14:27;;;;;;;;;;;13.00;96.50;;;;;;5051928;28;20310;-71
2023/08/22 16:16:54;;;;;;;;;;;13.20;96.40;;;;;;5036105;28;19913;-71
2023/08/22 16:19:20;;;;;;;;;;;13.50;95.40;;;;;;5036269;28;19972;-71
2023/08/22 16:21:47;;;;;;;;;;;13.60;95.10;;;;;;5036007;28;19956;-71
2023/08/22 16:24:14;;;;;;;;;;;13.50;95.20;;;;;;5034087;28;20255;-71
2023/08/22 16:26:40;;;;;;;;;;;13.40;95.40;;;;;;5035774;28;19913;-71
2023/08/22 16:29:07;;;;;;;;;;;13.50;95.20;;;;;;5035638;28;19919;-71
2023/08/22 16:31:34;;;;;;;;;;;13.50;95.50;;;;;;5035653;28;20386;-71
2023/08/22 16:34:03;;;;;;;;;;;13.80;95.20;;;;;;5035402;28;19992;-71
2023/08/22 16:36:30;;;;;;;;;;;13.90;94.40;;;;;;5035597;28;19910;-71
2023/08/22 16:38:56;;;;;;;;;;;13.70;94.80;;;;;;5034134;28;19927;-71
2023/08/22 16:41:23;;;;;;;;;;;13.90;95.00;;;;;;5035535;28;20349;-71
2023/08/22 16:43:50;;;;;;;;;;;14.00;94.60;;;;;;5034944;28;19979;-71
2023/08/22 16:46:16;;;;;;;;;;;13.90;94.70;;;;;;5035740;28;19913;-71
2023/08/22 16:48:43;;;;;;;;;;;13.70;95.00;;;;;;5035403;28;19917;-71
2023/08/22 16:51:10;;;;;;;;;;;13.90;95.10;;;;;;5035410;28;20059;-71
2023/08/22 16:53:36;;;;;;;;;;;13.70;95.10;;;;;;5034906;28;20367;-71
2023/08/22 16:56:03;;;;;;;;;;;13.80;95.20;;;;;;5034976;28;19920;-71
2023/08/22 16:58:30;;;;;;;;;;;13.90;94.80;;;;;;5033667;28;20367;-71
2023/08/22 17:00:56;;;;;;;;;;;13.70;94.70;;;;;;5035162;28;19920;-71
2023/08/22 17:03:23;;;;;;;;;;;13.70;95.10;;;;;;5035127;28;19916;-71
2023/08/22 17:05:50;;;;;;;;;;;13.70;94.70;;;;;;5034877;28;19916;-71
2023/08/22 17:08:16;;;;;;;;;;;13.80;94.70;;;;;;5035185;28;20000;-71
2023/08/22 17:10:43;;;;;;;;;;;13.60;94.80;;;;;;5034684;28;19916;-71
2023/08/22 17:13:10;;;;;;;;;;;13.80;94.70;;;;;;5041513;28;19917;-70
2023/08/22 17:15:36;;;;;;;;;;;13.60;95.20;;;;;;5034208;28;19923;-70
2023/08/22 17:18:03;;;;;;;;;;;13.50;95.80;;;;;;5035101;28;19916;-70
2023/08/22 17:20:30;;;;;;;;;;;13.40;96.50;;;;;;5034866;28;20385;-70
2023/08/22 17:22:56;;;;;;;;;;;13.30;97.20;;;;;;5034731;28;19913;-71
2023/08/22 17:25:23;;;;;;;;;;;13.20;96.80;;;;;;5034351;28;19910;-71
2023/08/22 17:27:50;;;;;;;;;;;13.20;97.20;;;;;;5034755;28;19909;-71
2023/08/22 17:30:19;;;;;;;;;;;13.10;97.50;;;;;;5034587;28;19909;-71
2023/08/22 17:32:46;;;;;;;;;;;13.20;97.40;;;;;;5034508;28;20309;-71
2023/08/22 17:35:13;;;;;;;;;;;13.10;97.90;;;;;;5032834;28;19910;-71
2023/08/22 17:37:39;;;;;;;;;;;13.10;97.40;;;;;;5034373;28;20003;-70
2023/08/22 17:40:07;;;;;;;;;;;13.10;97.10;;;;;;5033976;28;19925;-71
2023/08/22 17:42:34;;;;;;;;;;;13.10;97.30;;;;;;5034503;28;19909;-71
2023/08/22 17:45:02;;;;;;;;;;;13.20;97.50;;;;;;5034086;28;19925;-71
2023/08/22 17:47:28;;;;;;;;;;;13.10;97.60;;;;;;5034245;28;19944;-71
2023/08/22 17:49:55;;;;;;;;;;;12.90;97.80;;;;;;5034307;28;19915;-71
2023/08/22 17:52:22;;;;;;;;;;;13.00;97.90;;;;;;5034290;28;19913;-71
2023/08/22 17:54:49;;;;;;;;;;;13.00;98.10;;;;;;5033682;28;19909;-71
2023/08/22 17:57:15;;;;;;;;;;;12.80;98.20;;;;;;5034163;28;19916;-71
2023/08/22 17:59:42;;;;;;;;;;;13.00;98.40;;;;;;5034113;28;19921;-71
2023/08/22 18:02:09;;;;;;;;;;;13.00;97.70;;;;;;5034343;28;19909;-71
2023/08/22 18:04:35;;;;;;;;;;;12.80;98.00;;;;;;5033755;28;19916;-71
2023/08/22 18:07:02;;;;;;;;;;;12.60;98.30;;;;;;5033679;28;20027;-71
2023/08/22 18:09:28;;;;;;;;;;;12.40;98.70;;;;;;5049130;28;19913;-71
2023/08/22 18:11:55;;;;;;;;;;;12.40;98.70;;;;;;5042300;28;19908;-71
2023/08/22 18:14:22;;;;;;;;;;;12.30;98.90;;;;;;5042806;28;20359;-71